Time;durP1;ratioP1;P1;durP2;ratioP2;P2;SDS_P1;SDS_P2;PMS_P1;PMS_P2;Temp;Humidity;BMP_temperature;BMP_pressure;BME280_temperature;BME280_humidity;BME280_pressure;Samples;Min_cycle;Max_cycle;Signal;HPM_P1;HPM_P2
2021/03/06 00:00:36;;;;;;;27.27;5.50;;;5.10;92.50;;;;;;1989460;70;21206;-79
2021/03/06 00:03:04;;;;;;;16.35;4.60;;;5.10;92.80;;;;;;1996199;70;21085;-82
2021/03/06 00:05:31;;;;;;;17.70;4.78;;;5.00;92.80;;;;;;1999176;70;21107;-86
2021/03/06 00:07:59;;;;;;;16.55;4.50;;;5.00;92.90;;;;;;1998107;70;21023;-79
2021/03/06 00:10:26;;;;;;;18.55;4.53;;;5.00;93.00;;;;;;1993011;70;21568;-81
2021/03/06 00:12:54;;;;;;;12.53;4.50;;;5.00;93.00;;;;;;2006458;70;21167;-81
2021/03/06 00:15:24;;;;;;;20.60;5.15;;;5.00;93.10;;;;;;1998221;70;21085;-79
2021/03/06 00:17:52;;;;;;;20.40;4.50;;;4.90;93.10;;;;;;1995165;70;21077;-79
2021/03/06 00:20:20;;;;;;;12.88;4.97;;;4.90;93.30;;;;;;1997591;70;21116;-78
2021/03/06 00:22:50;;;;;;;18.23;4.60;;;4.90;93.50;;;;;;1993782;70;21069;-78
2021/03/06 00:25:19;;;;;;;15.70;4.90;;;4.90;93.70;;;;;;1994599;70;21132;-80
2021/03/06 00:27:46;;;;;;;18.98;5.58;;;4.80;94.10;;;;;;1995726;70;21071;-80
2021/03/06 00:30:19;;;;;;;23.73;5.28;;;4.80;93.90;;;;;;1992473;70;21226;-79
2021/03/06 00:32:47;;;;;;;15.10;4.50;;;4.90;94.00;;;;;;1996894;70;21556;-80
2021/03/06 00:35:14;;;;;;;14.45;4.80;;;4.90;94.20;;;;;;1991490;70;21195;-79
2021/03/06 00:37:43;;;;;;;13.50;4.03;;;4.90;94.20;;;;;;2000490;70;21136;-79
2021/03/06 00:40:12;;;;;;;15.15;4.85;;;4.90;94.30;;;;;;1992110;70;21908;-77
2021/03/06 00:42:40;;;;;;;13.98;4.83;;;4.90;94.60;;;;;;1999223;70;21885;-77
2021/03/06 00:45:09;;;;;;;11.88;4.35;;;4.90;94.40;;;;;;1998707;70;21101;-79
2021/03/06 00:47:36;;;;;;;9.95;4.15;;;4.90;94.40;;;;;;2000450;70;21091;-80
2021/03/06 00:50:07;;;;;;;11.88;4.70;;;5.00;94.30;;;;;;1997677;70;21077;-78
2021/03/06 00:52:34;;;;;;;11.93;4.33;;;5.00;94.40;;;;;;1997377;70;21613;-79
2021/03/06 00:55:01;;;;;;;13.68;4.60;;;5.00;94.50;;;;;;1998142;70;21153;-78
2021/03/06 00:57:29;;;;;;;15.23;4.28;;;5.00;94.60;;;;;;1998300;70;21635;-78
2021/03/06 00:59:56;;;;;;;14.85;4.65;;;4.90;94.70;;;;;;1994551;70;21016;-79
2021/03/06 01:02:24;;;;;;;16.05;4.55;;;4.90;94.70;;;;;;1990725;70;21166;-80
2021/03/06 01:04:51;;;;;;;18.23;6.53;;;5.00;94.70;;;;;;2004352;70;21124;-80
2021/03/06 01:07:19;;;;;;;13.13;5.08;;;5.00;94.70;;;;;;1992687;70;21003;-79
2021/03/06 01:09:46;;;;;;;17.65;5.65;;;5.00;95.00;;;;;;1996415;70;21719;-78
2021/03/06 01:12:14;;;;;;;15.88;4.25;;;5.00;95.10;;;;;;1999261;70;21388;-77
2021/03/06 01:14:42;;;;;;;15.10;4.37;;;4.90;95.40;;;;;;1994047;70;21152;-77
2021/03/06 01:17:09;;;;;;;14.43;3.92;;;4.90;95.60;;;;;;1992344;70;21198;-79
2021/03/06 01:19:37;;;;;;;15.00;4.37;;;5.00;95.70;;;;;;1988767;70;21088;-77
2021/03/06 01:22:04;;;;;;;13.25;4.62;;;5.00;95.50;;;;;;1995744;70;21564;-77
2021/03/06 01:24:32;;;;;;;13.15;4.35;;;5.10;95.60;;;;;;2001836;70;21482;-77
2021/03/06 01:26:59;;;;;;;13.78;4.28;;;5.10;95.50;;;;;;2001898;70;21210;-78
2021/03/06 01:29:27;;;;;;;13.43;3.80;;;5.10;95.70;;;;;;1998915;70;21092;-79
2021/03/06 01:31:54;;;;;;;16.00;4.65;;;5.20;95.50;;;;;;1995064;70;21097;-78
2021/03/06 01:34:22;;;;;;;16.07;4.15;;;5.20;95.70;;;;;;1991924;70;21166;-78
2021/03/06 01:36:49;;;;;;;13.65;4.05;;;5.20;95.30;;;;;;1997072;70;21725;-79
2021/03/06 01:39:17;;;;;;;16.57;4.20;;;5.10;95.50;;;;;;1994356;70;21089;-79
2021/03/06 01:41:44;;;;;;;12.18;3.20;;;5.10;95.60;;;;;;1996402;70;21134;-78
2021/03/06 01:44:12;;;;;;;17.17;6.00;;;5.10;95.50;;;;;;2000045;70;21156;-79
2021/03/06 01:46:39;;;;;;;19.90;9.03;;;5.00;95.50;;;;;;1999773;70;21154;-79
2021/03/06 01:49:07;;;;;;;16.48;4.50;;;5.00;95.70;;;;;;2002557;70;21086;-82
2021/03/06 01:51:34;;;;;;;17.15;4.83;;;5.10;95.80;;;;;;2001558;71;21686;-78
2021/03/06 01:54:03;;;;;;;17.37;4.17;;;5.10;95.80;;;;;;1990454;70;21611;-78
2021/03/06 01:56:33;;;;;;;18.07;6.05;;;5.10;95.70;;;;;;2006542;70;21073;-78
2021/03/06 01:59:01;;;;;;;13.60;4.47;;;5.10;95.80;;;;;;2005133;70;21065;-81
2021/03/06 02:01:29;;;;;;;14.05;4.03;;;5.00;95.80;;;;;;2007438;70;21077;-83
2021/03/06 02:03:58;;;;;;;16.77;4.08;;;5.00;95.90;;;;;;2006791;70;21399;-82
2021/03/06 02:06:26;;;;;;;14.20;4.60;;;5.00;96.00;;;;;;2003500;70;21142;-79
2021/03/06 02:08:54;;;;;;;13.40;4.10;;;5.00;96.30;;;;;;1997488;70;21066;-80
2021/03/06 02:11:42;;;;;;;15.53;4.22;;;4.90;96.50;;;;;;1996485;70;21069;-80
2021/03/06 02:14:18;;;;;;;15.85;4.03;;;4.90;96.70;;;;;;1996638;70;21156;-79
2021/03/06 02:16:49;;;;;;;11.57;4.10;;;5.00;96.70;;;;;;1974978;70;21124;-79
2021/03/06 02:19:53;;;;;;;19.92;4.30;;;5.00;96.70;;;;;;1993775;70;21139;-79
2021/03/06 02:22:49;;;;;;;12.07;4.00;;;5.10;97.00;;;;;;1998322;70;21077;-79
2021/03/06 02:25:36;;;;;;;15.05;4.80;;;5.10;96.80;;;;;;1999176;70;21077;-79
2021/03/06 02:28:09;;;;;;;18.77;4.67;;;5.00;97.10;;;;;;1940093;70;21081;-82
2021/03/06 02:30:38;;;;;;;12.68;4.30;;;5.10;97.20;;;;;;2001378;70;21125;-81
2021/03/06 02:33:08;;;;;;;37.67;19.80;;;5.20;97.10;;;;;;2006663;70;21105;-78
2021/03/06 02:35:37;;;;;;;16.57;5.30;;;5.20;97.20;;;;;;2001975;70;21168;-79
2021/03/06 02:38:10;;;;;;;12.47;5.47;;;5.20;97.40;;;;;;1996614;70;21081;-82
2021/03/06 02:40:40;;;;;;;15.43;3.90;;;5.20;97.30;;;;;;1993666;70;21801;-80
2021/03/06 02:43:09;;;;;;;14.38;4.10;;;5.20;97.40;;;;;;1995809;70;21128;-80
2021/03/06 02:45:39;;;;;;;12.63;3.72;;;5.20;97.40;;;;;;2002566;70;22099;-81
2021/03/06 02:48:07;;;;;;;18.23;4.22;;;5.20;97.50;;;;;;1999033;70;21143;-79
2021/03/06 02:50:35;;;;;;;21.42;4.22;;;5.30;97.40;;;;;;2001379;70;21093;-80
2021/03/06 02:53:02;;;;;;;20.40;3.95;;;5.30;97.40;;;;;;2005198;70;21121;-79
2021/03/06 02:55:30;;;;;;;16.37;4.00;;;5.30;97.40;;;;;;1991813;70;21116;-80
2021/03/06 02:58:00;;;;;;;11.80;3.40;;;5.40;97.40;;;;;;1995028;70;21452;-81
2021/03/06 03:00:37;;;;;;;12.80;3.67;;;5.40;97.50;;;;;;1945787;72;21224;-83
2021/03/06 03:03:13;;;;;;;10.82;3.80;;;5.40;97.40;;;;;;1950494;72;21729;-80
2021/03/06 03:06:00;;;;;;;11.40;3.52;;;5.40;97.40;;;;;;1947426;72;21147;-83
2021/03/06 03:08:30;;;;;;;10.15;3.30;;;5.40;97.50;;;;;;1949606;72;21163;-81
2021/03/06 03:11:03;;;;;;;16.27;3.52;;;5.40;97.50;;;;;;1949366;72;21575;-81
2021/03/06 03:13:43;;;;;;;13.10;3.60;;;5.50;97.50;;;;;;1944232;72;21192;-83
2021/03/06 03:16:20;;;;;;;15.00;3.47;;;5.50;97.60;;;;;;1945129;72;21622;-79
2021/03/06 03:18:53;;;;;;;15.85;3.50;;;5.40;97.80;;;;;;1992981;70;21091;-80
2021/03/06 03:21:22;;;;;;;9.58;3.42;;;5.40;98.10;;;;;;1993506;70;21155;-80
2021/03/06 03:23:53;;;;;;;13.13;3.37;;;5.40;98.30;;;;;;1991575;70;21148;-81
2021/03/06 03:26:22;;;;;;;16.02;4.08;;;5.20;98.80;;;;;;1993151;70;21065;-82
2021/03/06 03:29:09;;;;;;;9.53;3.30;;;5.30;99.00;;;;;;1994344;70;21125;-78
2021/03/06 03:31:38;;;;;;;11.05;3.60;;;5.30;99.00;;;;;;1938971;72;21181;-78
2021/03/06 03:34:08;;;;;;;14.07;3.70;;;5.30;98.90;;;;;;1947104;72;21172;-79
2021/03/06 03:36:37;;;;;;;14.43;3.65;;;5.40;98.90;;;;;;1946048;73;21482;-79
2021/03/06 03:39:06;;;;;;;12.53;3.40;;;5.40;99.00;;;;;;1956638;72;21145;-81
2021/03/06 03:41:34;;;;;;;13.13;3.47;;;5.40;99.10;;;;;;1985814;71;21068;-82
2021/03/06 03:44:04;;;;;;;12.98;3.15;;;5.40;99.30;;;;;;1978553;72;21186;-81
2021/03/06 03:46:33;;;;;;;11.08;3.30;;;5.40;99.40;;;;;;1978966;71;21243;-79
2021/03/06 03:49:03;;;;;;;10.63;3.10;;;5.40;99.70;;;;;;1974227;72;21696;-81
2021/03/06 03:51:33;;;;;;;14.43;3.10;;;5.50;99.80;;;;;;1969819;72;21006;-81
2021/03/06 03:54:00;;;;;;;17.73;3.77;;;5.50;99.90;;;;;;1975187;71;21033;-80
2021/03/06 03:56:29;;;;;;;16.10;3.62;;;5.50;99.90;;;;;;1979371;71;21065;-81
2021/03/06 03:58:56;;;;;;;12.85;3.25;;;5.60;99.90;;;;;;1974437;71;21142;-80
2021/03/06 04:01:23;;;;;;;10.75;3.40;;;5.60;99.90;;;;;;1974343;71;21525;-80
2021/03/06 04:03:51;;;;;;;15.43;4.03;;;5.60;99.90;;;;;;1972600;72;21119;-81
2021/03/06 04:06:18;;;;;;;15.60;3.30;;;5.70;99.90;;;;;;1974298;72;21139;-80
2021/03/06 04:08:46;;;;;;;9.68;3.27;;;5.70;99.90;;;;;;1918307;73;21088;-80
2021/03/06 04:11:14;;;;;;;12.85;3.83;;;5.70;99.90;;;;;;1918613;74;21151;-80
2021/03/06 04:13:42;;;;;;;13.93;4.10;;;5.70;99.90;;;;;;1917244;74;21046;-83
2021/03/06 04:16:10;;;;;;;8.45;3.27;;;5.80;99.90;;;;;;1982410;71;21081;-81
2021/03/06 04:18:37;;;;;;;11.90;3.75;;;5.80;99.90;;;;;;1985060;71;21119;-80
2021/03/06 04:21:05;;;;;;;14.55;3.60;;;5.90;99.90;;;;;;1982774;72;21117;-81
2021/03/06 04:23:32;;;;;;;9.25;3.33;;;5.90;99.90;;;;;;1978479;71;21026;-79
2021/03/06 04:26:00;;;;;;;12.75;3.37;;;6.00;99.90;;;;;;1974570;71;21026;-78
2021/03/06 04:28:27;;;;;;;12.47;2.92;;;5.90;99.90;;;;;;1977940;71;21381;-78
2021/03/06 04:30:55;;;;;;;12.30;3.15;;;5.90;99.90;;;;;;1983406;72;21121;-77
2021/03/06 04:33:22;;;;;;;10.18;2.87;;;6.00;99.90;;;;;;1890253;75;21147;-80
2021/03/06 04:35:50;;;;;;;11.08;3.05;;;6.00;99.90;;;;;;1890901;74;21120;-77
2021/03/06 04:38:17;;;;;;;10.10;3.25;;;6.00;99.90;;;;;;1906407;73;21083;-77
2021/03/06 04:40:45;;;;;;;14.40;3.35;;;6.00;99.90;;;;;;1904634;75;21603;-76
2021/03/06 04:43:12;;;;;;;15.10;3.42;;;6.00;99.90;;;;;;1898663;74;21139;-78
2021/03/06 04:45:40;;;;;;;16.93;3.55;;;5.90;99.90;;;;;;1893778;74;21094;-78
2021/03/06 04:48:08;;;;;;;13.88;3.12;;;6.00;99.90;;;;;;1877381;74;21111;-76
2021/03/06 04:50:35;;;;;;;12.15;3.10;;;6.00;99.90;;;;;;1895761;75;21092;-77
2021/03/06 04:53:03;;;;;;;9.70;2.85;;;6.10;99.90;;;;;;1878490;74;21476;-77
2021/03/06 04:55:30;;;;;;;10.95;3.37;;;6.10;99.90;;;;;;1927878;74;21587;-78
2021/03/06 04:57:58;;;;;;;9.85;3.33;;;6.20;99.90;;;;;;1873149;75;21210;-80
2021/03/06 05:00:25;;;;;;;11.08;3.02;;;6.20;99.90;;;;;;1875533;76;21144;-78
2021/03/06 05:02:53;;;;;;;10.45;3.58;;;6.20;99.90;;;;;;1898130;73;21081;-77
2021/03/06 05:05:21;;;;;;;7.72;3.15;;;6.20;99.90;;;;;;1871902;75;21107;-80
2021/03/06 05:07:48;;;;;;;15.60;3.42;;;6.20;99.90;;;;;;1976603;71;21026;-75
2021/03/06 05:10:16;;;;;;;11.28;2.90;;;6.20;99.90;;;;;;1979596;72;21059;-74
2021/03/06 05:12:43;;;;;;;9.10;3.02;;;6.20;99.90;;;;;;1899691;74;21162;-76
2021/03/06 05:15:11;;;;;;;13.05;4.03;;;6.30;99.90;;;;;;1899409;74;21548;-76
2021/03/06 05:17:39;;;;;;;12.65;3.60;;;6.30;99.90;;;;;;1970921;71;21065;-77
2021/03/06 05:20:07;;;;;;;17.60;3.92;;;6.20;99.90;;;;;;1976450;72;21152;-75
2021/03/06 05:22:35;;;;;;;9.98;3.15;;;6.20;99.90;;;;;;1982716;72;21146;-78
2021/03/06 05:25:03;;;;;;;11.22;3.22;;;6.20;99.90;;;;;;1973641;72;21718;-77
2021/03/06 05:27:31;;;;;;;9.88;2.87;;;6.10;99.90;;;;;;1980215;71;21315;-76
2021/03/06 05:29:59;;;;;;;10.20;3.00;;;6.10;99.90;;;;;;1895806;74;21674;-79
2021/03/06 05:32:26;;;;;;;10.43;2.83;;;6.10;99.90;;;;;;1925080;74;22609;-76
2021/03/06 05:34:54;;;;;;;9.75;3.15;;;6.10;99.90;;;;;;1889763;75;21085;-77
2021/03/06 05:37:21;;;;;;;13.05;2.95;;;6.00;99.90;;;;;;1929001;74;21206;-76
2021/03/06 05:39:49;;;;;;;14.07;3.02;;;6.00;99.90;;;;;;1926347;74;21194;-79
2021/03/06 05:42:18;;;;;;;13.95;2.98;;;6.00;99.90;;;;;;1866631;76;21170;-78
2021/03/06 05:44:46;;;;;;;11.53;2.90;;;6.00;99.90;;;;;;1978058;71;21590;-76
2021/03/06 05:47:14;;;;;;;7.33;2.52;;;5.90;99.90;;;;;;1983886;72;21154;-76
2021/03/06 05:49:41;;;;;;;10.03;2.67;;;6.00;99.90;;;;;;1980015;72;21175;-77
2021/03/06 05:52:10;;;;;;;5.40;2.33;;;5.90;99.90;;;;;;1974822;72;21088;-78
2021/03/06 05:54:39;;;;;;;8.73;2.52;;;5.90;99.90;;;;;;1972605;72;22637;-77
2021/03/06 05:57:08;;;;;;;11.22;2.87;;;5.90;99.90;;;;;;1930669;74;21078;-79
2021/03/06 05:59:36;;;;;;;8.63;3.17;;;5.90;99.90;;;;;;1899090;74;21112;-78
2021/03/06 06:02:04;;;;;;;10.58;2.87;;;5.90;99.90;;;;;;1882512;75;21220;-79
2021/03/06 06:04:33;;;;;;;9.10;3.05;;;5.90;99.90;;;;;;1869066;75;21115;-76
2021/03/06 06:07:05;;;;;;;7.50;2.52;;;5.90;99.90;;;;;;1924466;73;21050;-79
2021/03/06 06:09:33;;;;;;;9.50;2.98;;;5.90;99.90;;;;;;1871450;75;21110;-80
2021/03/06 06:12:01;;;;;;;13.30;2.90;;;5.90;99.90;;;;;;1922379;74;21085;-78
2021/03/06 06:14:29;;;;;;;10.78;2.75;;;5.90;99.90;;;;;;1872345;74;21179;-79
2021/03/06 06:16:56;;;;;;;11.57;3.10;;;5.90;99.90;;;;;;1903577;73;21081;-75
2021/03/06 06:19:24;;;;;;;10.08;2.87;;;6.00;99.90;;;;;;1894236;75;21078;-80
2021/03/06 06:21:51;;;;;;;11.60;3.22;;;6.10;99.90;;;;;;1977823;72;21154;-79
2021/03/06 06:24:24;;;;;;;11.12;3.02;;;6.10;99.90;;;;;;1979638;72;21069;-79
2021/03/06 06:27:00;;;;;;;8.13;2.60;;;6.00;99.90;;;;;;1977509;72;21148;-77
2021/03/06 06:29:41;;;;;;;11.93;3.15;;;6.10;99.90;;;;;;1962842;72;21100;-79
2021/03/06 06:32:11;;;;;;;7.00;2.77;;;6.10;99.90;;;;;;1975723;71;21167;-78
2021/03/06 06:34:41;;;;;;;11.73;2.85;;;6.10;99.90;;;;;;1977535;71;21003;-77
2021/03/06 06:37:13;;;;;;;9.35;2.85;;;6.10;99.90;;;;;;1977619;71;21472;-76
2021/03/06 06:39:42;;;;;;;7.35;3.00;;;6.20;99.90;;;;;;1976390;71;21046;-77
2021/03/06 06:42:10;;;;;;;10.05;3.08;;;6.20;99.90;;;;;;1984994;71;21144;-77
2021/03/06 06:44:38;;;;;;;10.82;3.12;;;6.30;99.90;;;;;;1978520;71;22282;-79
2021/03/06 06:47:16;;;;;;;11.10;3.08;;;6.30;99.90;;;;;;1972108;72;21081;-78
2021/03/06 06:49:54;;;;;;;15.30;2.80;;;6.40;99.90;;;;;;1983947;72;21113;-80
2021/03/06 06:52:23;;;;;;;9.25;3.08;;;6.40;99.90;;;;;;1972492;72;21082;-79
2021/03/06 06:54:56;;;;;;;8.90;2.77;;;6.40;99.90;;;;;;1974976;71;21057;-80
2021/03/06 06:57:25;;;;;;;11.45;3.85;;;6.40;99.90;;;;;;1970925;72;21064;-77
2021/03/06 07:00:01;;;;;;;11.70;3.47;;;6.50;99.90;;;;;;1972896;72;21727;-76
2021/03/06 07:02:30;;;;;;;10.05;4.17;;;6.60;99.90;;;;;;1985878;72;21280;-77
2021/03/06 07:04:59;;;;;;;10.50;3.77;;;6.70;99.90;;;;;;1967557;72;21588;-81
2021/03/06 07:07:28;;;;;;;10.70;4.17;;;6.70;99.90;;;;;;1974916;72;21546;-78
2021/03/06 07:10:04;;;;;;;9.75;3.58;;;6.70;99.90;;;;;;1979687;72;21119;-79
2021/03/06 07:12:35;;;;;;;10.70;4.15;;;6.70;99.90;;;;;;1875651;75;21173;-79
2021/03/06 07:15:05;;;;;;;12.30;4.00;;;6.80;99.90;;;;;;1923276;73;21038;-83
2021/03/06 07:17:38;;;;;;;7.95;3.98;;;6.80;99.90;;;;;;1878466;75;21035;-83
2021/03/06 07:20:08;;;;;;;16.12;3.95;;;6.90;99.90;;;;;;1901070;74;21113;-82
2021/03/06 07:22:35;;;;;;;12.47;4.00;;;6.90;99.90;;;;;;1889248;75;21081;-78
2021/03/06 07:25:04;;;;;;;9.58;4.15;;;7.00;99.90;;;;;;1906628;74;21152;-77
2021/03/06 07:27:31;;;;;;;17.60;4.47;;;6.90;99.90;;;;;;1927126;74;21591;-79
2021/03/06 07:29:59;;;;;;;12.68;4.95;;;7.00;99.90;;;;;;1868670;76;21156;-77
2021/03/06 07:32:29;;;;;;;13.83;4.42;;;7.00;99.90;;;;;;1978295;71;21081;-78
2021/03/06 07:35:05;;;;;;;13.72;4.42;;;7.10;99.90;;;;;;1976590;72;21131;-81
2021/03/06 07:37:33;;;;;;;9.95;4.25;;;7.20;99.90;;;;;;1978524;72;21493;-80
2021/03/06 07:40:04;;;;;;;12.50;4.37;;;7.30;99.90;;;;;;1982920;72;21283;-79
2021/03/06 07:42:34;;;;;;;10.38;4.55;;;7.30;99.90;;;;;;1892648;75;21567;-79
2021/03/06 07:45:03;;;;;;;15.65;4.55;;;7.20;99.90;;;;;;1885879;75;21120;-79
2021/03/06 07:47:37;;;;;;;11.97;4.50;;;7.30;99.90;;;;;;1880100;76;21135;-79
2021/03/06 07:50:07;;;;;;;12.00;4.28;;;7.30;99.90;;;;;;1921874;74;21540;-79
2021/03/06 07:52:37;;;;;;;12.30;4.80;;;7.20;99.90;;;;;;1928243;74;21478;-79
2021/03/06 07:55:07;;;;;;;13.53;5.15;;;7.20;99.90;;;;;;1925191;74;21078;-79
2021/03/06 07:57:54;;;;;;;11.55;4.60;;;7.20;99.90;;;;;;1874673;76;21046;-78
2021/03/06 08:00:48;;;;;;;17.35;5.17;;;7.20;99.90;;;;;;1971439;72;21054;-82
2021/03/06 08:03:27;;;;;;;13.55;6.00;;;7.20;99.90;;;;;;1975087;72;21101;-78
2021/03/06 08:05:57;;;;;;;11.55;4.83;;;7.20;99.90;;;;;;1929948;73;21132;-81
2021/03/06 08:08:36;;;;;;;16.65;5.12;;;7.20;99.90;;;;;;1866152;76;21108;-81
2021/03/06 08:11:09;;;;;;;15.60;5.78;;;7.20;99.90;;;;;;1978726;72;21178;-81
2021/03/06 08:13:41;;;;;;;18.23;5.47;;;7.30;99.90;;;;;;1981479;72;21470;-80
2021/03/06 08:16:30;;;;;;;13.38;5.85;;;7.30;99.90;;;;;;1974717;72;21913;-80
2021/03/06 08:19:11;;;;;;;16.23;6.15;;;7.20;99.90;;;;;;1895898;75;21106;-79
2021/03/06 08:21:44;;;;;;;13.03;6.35;;;7.20;99.90;;;;;;1894518;74;21129;-79
2021/03/06 08:24:15;;;;;;;16.23;6.33;;;7.30;99.90;;;;;;1893585;75;21049;-79
2021/03/06 08:26:52;;;;;;;22.87;8.73;;;7.40;99.90;;;;;;1890937;75;21090;-79
2021/03/06 08:29:26;;;;;;;17.40;8.98;;;7.40;99.90;;;;;;1892554;75;21199;-80
2021/03/06 08:32:16;;;;;;;12.78;7.53;;;7.50;99.90;;;;;;1896839;75;21154;-79
2021/03/06 08:34:46;;;;;;;14.13;8.48;;;7.40;99.90;;;;;;1890527;75;21109;-75
2021/03/06 08:37:25;;;;;;;14.50;7.65;;;7.40;99.90;;;;;;1879256;74;21130;-80
2021/03/06 08:40:13;;;;;;;17.52;7.40;;;7.50;99.90;;;;;;1932770;74;21133;-82
2021/03/06 08:42:46;;;;;;;14.73;7.42;;;7.50;99.90;;;;;;1971773;72;21104;-79
2021/03/06 08:45:22;;;;;;;18.67;6.85;;;7.50;99.90;;;;;;1975190;71;21217;-78
2021/03/06 08:47:58;;;;;;;14.07;6.92;;;7.60;99.90;;;;;;1973671;71;21089;-77
2021/03/06 08:50:28;;;;;;;17.35;6.85;;;7.70;99.90;;;;;;1916430;73;22271;-81
2021/03/06 08:53:00;;;;;;;14.65;8.35;;;7.80;99.90;;;;;;1874883;75;21128;-80
2021/03/06 08:55:30;;;;;;;16.10;8.28;;;7.90;99.90;;;;;;1977403;72;21073;-78
2021/03/06 08:58:03;;;;;;;19.98;10.53;;;7.90;99.90;;;;;;1972187;71;21273;-78
2021/03/06 09:00:36;;;;;;;17.12;10.78;;;8.00;99.90;;;;;;1972828;71;21121;-78
2021/03/06 09:03:12;;;;;;;19.70;12.80;;;7.90;99.90;;;;;;1893028;74;21030;-78
2021/03/06 09:05:40;;;;;;;25.68;11.18;;;7.90;99.90;;;;;;1897173;75;21104;-79
2021/03/06 09:08:08;;;;;;;20.85;10.45;;;7.80;99.90;;;;;;1899254;75;21540;-76
2021/03/06 09:10:41;;;;;;;16.73;10.98;;;7.80;99.90;;;;;;1896171;75;21501;-78
2021/03/06 09:13:19;;;;;;;20.75;10.45;;;7.80;99.90;;;;;;1896438;74;21022;-79
2021/03/06 09:16:03;;;;;;;25.17;12.40;;;7.80;99.90;;;;;;1896656;74;21182;-80
2021/03/06 09:18:32;;;;;;;21.23;11.12;;;7.90;99.90;;;;;;1895603;74;21104;-80
2021/03/06 09:21:05;;;;;;;19.37;10.75;;;8.00;99.90;;;;;;1898260;74;21534;-80
2021/03/06 09:23:40;;;;;;;18.57;11.25;;;8.00;99.90;;;;;;1893548;75;21125;-79
2021/03/06 09:26:26;;;;;;;20.77;9.95;;;8.10;99.90;;;;;;1898339;75;21434;-80
2021/03/06 09:28:55;;;;;;;21.50;9.43;;;8.10;99.90;;;;;;1900311;74;21151;-81
2021/03/06 09:31:28;;;;;;;19.32;10.23;;;8.20;99.90;;;;;;1867255;72;21694;-78
2021/03/06 09:33:57;;;;;;;24.37;12.58;;;8.10;99.90;;;;;;1840859;76;22155;-78
2021/03/06 09:36:30;;;;;;;21.75;12.43;;;8.20;99.90;;;;;;1841599;76;21119;-76
2021/03/06 09:39:00;;;;;;;18.80;11.68;;;8.30;99.90;;;;;;1855826;75;21112;-82
2021/03/06 09:41:35;;;;;;;23.77;13.22;;;8.20;99.90;;;;;;1846507;75;21167;-82
2021/03/06 09:44:05;;;;;;;25.85;13.28;;;8.20;99.90;;;;;;1854477;75;21113;-82
2021/03/06 09:46:34;;;;;;;22.62;11.60;;;8.20;99.90;;;;;;1848600;75;21109;-82
2021/03/06 09:49:06;;;;;;;24.23;13.55;;;8.30;99.90;;;;;;1848157;75;21252;-82
2021/03/06 09:51:58;;;;;;;18.60;12.25;;;8.30;99.90;;;;;;1851450;75;21226;-83
2021/03/06 09:54:25;;;;;;;15.55;10.35;;;8.40;99.90;;;;;;1854251;75;21681;-83
2021/03/06 09:56:59;;;;;;;18.60;9.63;;;8.40;99.90;;;;;;1854559;75;21144;-83
2021/03/06 09:59:28;;;;;;;20.80;10.82;;;8.50;99.90;;;;;;1854167;75;21155;-83
2021/03/06 10:02:04;;;;;;;20.80;13.38;;;8.40;99.90;;;;;;1852764;75;21132;-82
2021/03/06 10:04:32;;;;;;;25.27;15.98;;;8.40;99.90;;;;;;1855071;75;21195;-83
2021/03/06 10:07:00;;;;;;;28.10;17.15;;;8.40;99.90;;;;;;1851146;77;21108;-83
2021/03/06 10:09:33;;;;;;;25.88;17.02;;;8.50;99.90;;;;;;1854238;75;21585;-85
2021/03/06 10:12:09;;;;;;;27.48;16.67;;;8.50;99.90;;;;;;1866729;75;21141;-83
2021/03/06 10:14:37;;;;;;;21.68;13.60;;;8.60;99.90;;;;;;1839579;76;21117;-82
2021/03/06 10:17:07;;;;;;;25.35;12.95;;;8.60;99.90;;;;;;1846042;76;21075;-83
2021/03/06 10:19:43;;;;;;;21.05;9.25;;;8.70;99.90;;;;;;1844117;76;21192;-84
2021/03/06 10:22:13;;;;;;;13.62;6.17;;;8.70;99.90;;;;;;1841167;76;21103;-83
2021/03/06 10:25:02;;;;;;;11.78;4.78;;;8.80;99.90;;;;;;1850162;76;21192;-82
2021/03/06 10:27:35;;;;;;;12.30;3.02;;;8.80;99.90;;;;;;1866424;75;21087;-85
2021/03/06 10:30:17;;;;;;;11.50;2.92;;;8.90;99.90;;;;;;1865087;75;21179;-83
2021/03/06 10:32:51;;;;;;;8.98;3.00;;;8.90;99.90;;;;;;1823842;77;21054;-81
2021/03/06 10:35:42;;;;;;;9.13;2.83;;;9.10;99.90;;;;;;1817548;78;21130;-82
2021/03/06 10:38:31;;;;;;;11.08;2.95;;;9.20;99.90;;;;;;1867469;75;21192;-83
2021/03/06 10:41:00;;;;;;;9.95;3.67;;;9.30;99.90;;;;;;1845245;76;21542;-86
2021/03/06 10:43:39;;;;;;;8.65;2.65;;;9.60;99.90;;;;;;1843484;76;21153;-88
2021/03/06 10:46:17;;;;;;;10.30;2.87;;;9.80;99.90;;;;;;1847678;76;21538;-85
2021/03/06 10:48:47;;;;;;;8.58;3.22;;;9.90;99.90;;;;;;1844026;76;21184;-87
2021/03/06 10:51:14;;;;;;;5.67;2.85;;;9.90;99.90;;;;;;1839016;76;21181;-87
2021/03/06 10:53:43;;;;;;;5.97;2.30;;;9.80;99.90;;;;;;1855328;76;21094;-90
2021/03/06 10:56:21;;;;;;;6.45;2.12;;;9.80;99.90;;;;;;1843576;76;21147;-86
2021/03/06 10:58:50;;;;;;;6.70;2.12;;;9.70;99.90;;;;;;1846771;75;21065;-87
2021/03/06 11:01:17;;;;;;;8.15;2.80;;;9.70;99.90;;;;;;1853349;75;21112;-88
2021/03/06 11:03:49;;;;;;;7.62;2.60;;;9.70;99.90;;;;;;1852094;75;21048;-85
2021/03/06 11:06:21;;;;;;;11.48;2.90;;;9.70;99.90;;;;;;1849878;75;21502;-86
2021/03/06 11:09:04;;;;;;;8.98;3.02;;;9.80;99.90;;;;;;1850123;75;21108;-86
2021/03/06 11:11:31;;;;;;;5.33;2.65;;;9.80;99.90;;;;;;1851733;75;21181;-86
2021/03/06 11:13:59;;;;;;;7.20;2.83;;;9.80;99.90;;;;;;1854187;75;21269;-86
2021/03/06 11:16:40;;;;;;;8.28;2.90;;;9.80;99.90;;;;;;1856949;75;21144;-86
2021/03/06 11:19:08;;;;;;;33.67;20.62;;;9.90;99.90;;;;;;1854489;75;21119;-86
2021/03/06 11:21:36;;;;;;;15.90;8.05;;;9.90;99.90;;;;;;1858468;75;21590;-85
2021/03/06 11:24:04;;;;;;;7.70;3.00;;;9.90;99.90;;;;;;1852211;75;21117;-85
2021/03/06 11:26:46;;;;;;;6.17;2.40;;;9.90;99.90;;;;;;1855603;75;21154;-85
2021/03/06 11:29:14;;;;;;;7.42;2.50;;;10.00;99.90;;;;;;1852923;75;21198;-86
2021/03/06 11:31:43;;;;;;;5.90;2.05;;;10.20;99.90;;;;;;1854322;75;21085;-82
2021/03/06 11:34:10;;;;;;;6.05;2.08;;;10.40;99.90;;;;;;1855397;75;21113;-85
2021/03/06 11:36:38;;;;;;;5.80;2.00;;;10.50;99.90;;;;;;1823430;77;21112;-83
2021/03/06 11:39:06;;;;;;;6.75;2.00;;;10.50;99.90;;;;;;1851705;75;21532;-86
2021/03/06 11:41:33;;;;;;;5.22;2.65;;;10.40;99.90;;;;;;1852129;75;21124;-86
2021/03/06 11:44:05;;;;;;;8.48;5.40;;;10.30;99.90;;;;;;1857443;75;21209;-87
2021/03/06 11:47:07;;;;;;;13.70;8.40;;;10.20;99.90;;;;;;1851195;75;21705;-87
2021/03/06 11:49:43;;;;;;;11.90;8.97;;;10.00;99.90;;;;;;1853592;75;21107;-88
2021/03/06 11:52:10;;;;;;;14.15;9.03;;;9.90;99.90;;;;;;1853996;75;21123;-86
2021/03/06 11:54:38;;;;;;;8.73;6.33;;;9.90;99.90;;;;;;1858085;75;21131;-85
2021/03/06 11:57:06;;;;;;;5.87;4.10;;;9.90;99.90;;;;;;1854840;75;21459;-85
2021/03/06 11:59:34;;;;;;;5.55;3.80;;;10.10;99.90;;;;;;1852340;75;21212;-85
2021/03/06 12:02:01;;;;;;;5.53;4.00;;;10.30;99.90;;;;;;1856778;75;21125;-86
2021/03/06 12:04:29;;;;;;;7.70;4.30;;;10.70;99.90;;;;;;1850322;75;21699;-82
2021/03/06 12:06:57;;;;;;;8.23;4.50;;;11.30;99.90;;;;;;1850797;75;21104;-82
2021/03/06 12:09:25;;;;;;;10.35;3.70;;;11.90;99.90;;;;;;1853396;75;21540;-76
2021/03/06 12:11:52;;;;;;;5.53;3.15;;;12.00;99.90;;;;;;1853804;75;21250;-76
2021/03/06 12:14:20;;;;;;;6.87;3.65;;;12.10;99.90;;;;;;1851366;75;21220;-79
2021/03/06 12:16:47;;;;;;;7.22;3.55;;;11.70;99.90;;;;;;1848543;75;21154;-80
2021/03/06 12:19:15;;;;;;;8.50;3.42;;;11.50;99.90;;;;;;1851757;75;21175;-81
2021/03/06 12:21:42;;;;;;;9.05;3.62;;;11.30;99.90;;;;;;1850289;75;21093;-80
2021/03/06 12:24:10;;;;;;;6.97;3.60;;;11.30;99.90;;;;;;1853098;75;21104;-79
2021/03/06 12:26:37;;;;;;;9.68;3.00;;;11.10;99.90;;;;;;1853250;75;21104;-84
2021/03/06 12:29:05;;;;;;;5.55;2.10;;;11.00;99.90;;;;;;1852144;75;21503;-82
2021/03/06 12:31:32;;;;;;;5.58;2.30;;;10.80;99.90;;;;;;1857410;75;21128;-84
2021/03/06 12:34:00;;;;;;;6.30;2.40;;;10.60;99.90;;;;;;1857087;75;21099;-86
2021/03/06 12:36:27;;;;;;;4.28;2.20;;;10.50;99.90;;;;;;1846092;75;21076;-85
2021/03/06 12:38:55;;;;;;;4.47;2.20;;;10.40;99.90;;;;;;1852281;75;21116;-86
2021/03/06 12:41:22;;;;;;;5.20;2.95;;;10.30;99.90;;;;;;1852856;75;21241;-85
2021/03/06 12:43:50;;;;;;;6.60;3.15;;;10.20;99.90;;;;;;1851390;75;21127;-81
2021/03/06 12:46:17;;;;;;;4.47;2.55;;;10.30;99.90;;;;;;1853840;75;21186;-83
2021/03/06 12:48:45;;;;;;;7.12;2.40;;;10.30;99.90;;;;;;1854745;75;21096;-83
2021/03/06 12:51:13;;;;;;;5.42;2.10;;;10.50;99.90;;;;;;1857496;75;21162;-85
2021/03/06 12:53:40;;;;;;;6.35;2.25;;;10.60;99.90;;;;;;1852514;75;21045;-82
2021/03/06 12:56:08;;;;;;;6.50;2.40;;;10.80;99.90;;;;;;1849435;75;21111;-83
2021/03/06 12:58:36;;;;;;;5.37;1.40;;;11.20;99.90;;;;;;1853207;75;21558;-83
2021/03/06 13:01:03;;;;;;;4.50;1.20;;;11.90;99.90;;;;;;1852349;75;21213;-82
2021/03/06 13:03:31;;;;;;;3.67;1.17;;;12.30;99.90;;;;;;1851713;75;21091;-80
2021/03/06 13:05:58;;;;;;;4.85;1.30;;;12.30;99.90;;;;;;1849730;75;21508;-81